createdAt,value
2017-04-05T00:00:27.545Z,98.1
2017-04-05T00:03:07.360Z,97.96
2017-04-05T00:04:33.858Z,98.63
2017-04-05T00:06:04.197Z,98.05
2017-04-05T00:10:25.920Z,98.15
2017-04-05T00:12:13.223Z,97.86
2017-04-05T00:13:11.421Z,97.86
2017-04-05T00:15:42.974Z,98.05
2017-04-05T00:17:19.082Z,97.47
2017-04-05T00:20:33.649Z,97.47
2017-04-05T00:21:49.815Z,97.19
2017-04-05T00:23:46.419Z,96.85
2017-04-05T00:24:34.743Z,96.89
2017-04-05T00:26:21.954Z,97.04
2017-04-05T00:27:38.705Z,96.94
2017-04-05T00:29:25.958Z,96.46
2017-04-05T00:31:48.190Z,95.98
2017-04-05T00:32:04.703Z,96.12
2017-04-05T00:32:23.873Z,96.32
2017-04-05T00:33:11.506Z,96.32
2017-04-05T00:33:25.809Z,96.12
2017-04-05T00:33:41.126Z,96.42
2017-04-05T00:33:57.441Z,96.12
2017-04-05T00:36:45.875Z,96.32
2017-04-05T00:37:31.071Z,96.42
2017-04-05T00:37:45.300Z,96.22
2017-04-05T00:37:59.565Z,96.42
2017-04-05T00:38:13.899Z,96.51
2017-04-05T00:38:59.453Z,96.12
2017-04-05T00:39:14.864Z,96.51
2017-04-05T00:39:29.965Z,96.51
2017-04-05T00:40:15.129Z,96.51
2017-04-05T00:41:00.288Z,96.22
2017-04-05T00:41:45.516Z,96.32
2017-04-05T00:41:59.818Z,96.42
2017-04-05T00:44:46.950Z,96.42
2017-04-05T00:45:01.257Z,96.32
2017-04-05T00:47:02.969Z,96.8
2017-04-05T00:48:45.648Z,96.51
2017-04-05T00:51:22.224Z,96.61
2017-04-05T00:51:37.328Z,96.51
2017-04-05T00:53:51.554Z,95.84
2017-04-05T00:54:10.927Z,96.03
2017-04-05T00:55:58.116Z,96.42
2017-04-05T00:57:32.746Z,96.8
2017-04-05T00:58:28.848Z,95.84
2017-04-05T00:59:46.738Z,96.12
2017-04-05T01:00:32.734Z,96.12
2017-04-05T01:00:47.002Z,96.32
2017-04-05T01:03:25.246Z,96.22
2017-04-05T01:04:41.531Z,96.42
2017-04-05T01:06:29.858Z,95.94
2017-04-05T01:07:26.391Z,96.56
2017-04-05T01:07:40.610Z,95.6
2017-04-05T01:09:27.776Z,95.98
2017-04-05T01:10:25.182Z,95.98
2017-04-05T01:11:24.154Z,95.89
2017-04-05T01:12:40.297Z,95.79
2017-04-05T01:13:01.046Z,95.89
2017-04-05T01:15:01.205Z,95.69
2017-04-05T01:16:23.670Z,95.5
2017-04-05T01:16:37.887Z,95.5
2017-04-05T01:17:54.057Z,95.4
2017-04-05T01:18:39.206Z,95.4
2017-04-05T01:18:53.395Z,95.12
2017-04-05T01:19:10.251Z,95.02
2017-04-05T01:20:26.702Z,95.02
2017-04-05T01:22:28.000Z,95.21
2017-04-05T01:23:13.181Z,94.82
2017-04-05T01:23:29.112Z,94.64
2017-04-05T01:24:14.270Z,94.73
2017-04-05T01:24:59.442Z,94.34
2017-04-05T01:28:28.458Z,94.54
2017-04-05T01:31:33.222Z,94.44
2017-04-05T01:34:16.311Z,94.64
2017-04-05T01:35:32.416Z,93.96
2017-04-05T01:37:27.456Z,94.25
2017-04-05T01:39:01.902Z,94.25
2017-04-05T01:42:07.472Z,93.38
2017-04-05T01:44:15.015Z,93.48
2017-04-05T01:44:32.059Z,93.05
2017-04-05T01:44:57.554Z,93.05
2017-04-05T01:47:47.130Z,92.42
2017-04-05T01:49:03.504Z,92.47
2017-04-05T01:49:48.969Z,92.57
2017-04-05T01:51:36.118Z,92.18
2017-04-05T01:53:06.577Z,92.03
2017-04-05T01:53:52.478Z,92.13
2017-04-05T01:57:03.841Z,92.08
2017-04-05T01:57:48.983Z,92.28
2017-04-05T01:58:03.127Z,92.18
2017-04-05T01:58:17.340Z,92.47
2017-04-05T01:58:31.522Z,91.8
2017-04-05T01:58:50.717Z,91.7
2017-04-05T01:59:36.340Z,91.51
2017-04-05T02:01:22.805Z,91.41
2017-04-05T02:01:37.001Z,91.41
2017-04-05T02:02:22.213Z,91.22
2017-04-05T02:02:36.366Z,91.22
2017-04-05T02:03:52.512Z,91.51
2017-04-05T02:04:06.639Z,91.41
2017-04-05T02:04:51.804Z,91.22
2017-04-05T02:05:42.039Z,90.55
2017-04-05T02:06:59.238Z,90.83
2017-04-05T02:07:46.018Z,90.73
2017-04-05T02:08:42.965Z,90.45
2017-04-05T02:09:36.102Z,90.26
2017-04-05T02:10:24.354Z,89.97
2017-04-05T02:11:54.743Z,89.68
2017-04-05T02:13:10.871Z,89.39
2017-04-05T02:13:25.033Z,89.78
2017-04-05T02:14:24.558Z,89.87
2017-04-05T02:14:38.688Z,89.78
2017-04-05T02:14:52.856Z,89.97
2017-04-05T02:15:52.191Z,89.29
2017-04-05T02:17:39.324Z,89.58
2017-04-05T02:18:24.504Z,89.39
2017-04-05T02:18:38.665Z,89.39
2017-04-05T02:18:52.887Z,89.2
2017-04-05T02:20:54.199Z,89.92
2017-04-05T02:21:08.447Z,89.82
2017-04-05T02:23:40.912Z,90.06
2017-04-05T02:24:57.078Z,89.68
2017-04-05T02:25:11.338Z,89.78
2017-04-05T02:26:41.878Z,89.87
2017-04-05T02:26:56.067Z,89.58
2017-04-05T02:28:22.699Z,89.58
2017-04-05T02:29:07.862Z,89.68
2017-04-05T02:29:22.060Z,90.16
2017-04-05T02:29:36.499Z,89.97
2017-04-05T02:29:53.734Z,89.68
2017-04-05T02:31:41.148Z,89.58
2017-04-05T02:32:26.430Z,89.68
2017-04-05T02:32:41.357Z,89.68
2017-04-05T02:32:55.651Z,89.87
2017-04-05T02:33:09.952Z,89.87
2017-04-05T02:33:55.331Z,89.68
2017-04-05T02:34:40.502Z,89.78
2017-04-05T02:36:10.924Z,89.97
2017-04-05T02:36:26.591Z,89.78
2017-04-05T02:37:11.738Z,89.78
2017-04-05T02:37:56.975Z,89.87
2017-04-05T02:39:28.524Z,89.87
2017-04-05T02:40:59.148Z,89.87
2017-04-05T02:41:14.096Z,89.87
2017-04-05T02:42:30.787Z,89.87
2017-04-05T02:44:18.165Z,89.78
2017-04-05T02:45:03.334Z,89.87
2017-04-05T02:45:17.481Z,89.78
2017-04-05T02:45:31.636Z,89.97
2017-04-05T02:45:45.802Z,89.78
2017-04-05T02:47:01.966Z,89.78
2017-04-05T02:47:47.148Z,90.11
2017-04-05T02:48:01.355Z,90.06
2017-04-05T02:48:46.548Z,89.97
2017-04-05T02:49:00.779Z,90.26
2017-04-05T02:49:16.182Z,91.13
2017-04-05T02:50:01.802Z,90.73
2017-04-05T02:50:46.934Z,90.55
2017-04-05T02:51:01.553Z,91.13
2017-04-05T02:53:22.152Z,90.21
2017-04-05T02:54:07.297Z,90.21
2017-04-05T02:54:21.457Z,90.12
2017-04-05T02:54:36.300Z,90.31
2017-04-05T02:54:50.444Z,90.21
2017-04-05T02:55:35.688Z,90.41
2017-04-05T02:57:20.238Z,89.83
2017-04-05T02:58:05.369Z,90.02
2017-04-05T03:00:20.813Z,89.73
2017-04-05T03:01:05.972Z,89.64
2017-04-05T03:01:27.101Z,89.44
2017-04-05T03:01:41.282Z,89.78
2017-04-05T03:02:33.278Z,89.64
2017-04-05T03:02:47.476Z,89.69
2017-04-05T03:03:32.609Z,89.78
2017-04-05T03:04:17.757Z,89.59
2017-04-05T03:04:31.914Z,89.4
2017-04-05T03:05:17.064Z,89.3
2017-04-05T03:07:18.317Z,89.21
2017-04-05T03:09:52.207Z,88.82
2017-04-05T03:13:11.355Z,87.24
2017-04-05T03:15:50.603Z,86.47
2017-04-05T03:16:30.492Z,86.28
2017-04-05T03:16:46.766Z,85.41
2017-04-05T03:17:00.986Z,85.71
2017-04-05T03:18:17.347Z,85.36
2017-04-05T03:18:31.536Z,85.32
2017-04-05T03:18:47.498Z,84.94
2017-04-05T03:19:01.626Z,84.84
2017-04-05T03:19:16.185Z,84.4
2017-04-05T03:19:30.383Z,84.78
2017-04-05T03:19:44.525Z,84.36
2017-04-05T03:19:58.669Z,84.26
2017-04-05T03:20:43.876Z,83.78
2017-04-05T03:20:58.029Z,83.78
2017-04-05T03:21:13.117Z,83.69
2017-04-05T03:21:28.520Z,83.78
2017-04-05T03:21:42.687Z,83.97
2017-04-05T03:21:56.896Z,83.49
2017-04-05T03:22:13.325Z,83.69
2017-04-05T03:22:27.487Z,83.69
2017-04-05T03:22:49.541Z,83.87
2017-04-05T03:23:03.694Z,83.69
2017-04-05T03:23:17.846Z,83.78
2017-04-05T03:23:31.994Z,83.3
2017-04-05T03:23:46.166Z,83.2
2017-04-05T03:24:00.388Z,83.59
2017-04-05T03:24:15.787Z,82.92
2017-04-05T03:24:30.184Z,82.82
2017-04-05T03:24:44.362Z,82.73
2017-04-05T03:24:59.240Z,82.92
2017-04-05T03:25:14.080Z,82.86
2017-04-05T03:25:28.292Z,82.82
2017-04-05T03:25:42.420Z,82.92
2017-04-05T03:25:59.701Z,82.92
2017-04-05T03:26:40.590Z,83.06
2017-04-05T03:27:05.262Z,83.11
2017-04-05T03:27:21.291Z,83.06
2017-04-05T03:27:35.403Z,83.15
2017-04-05T03:27:49.582Z,83.06
2017-04-05T03:28:03.774Z,83.11
2017-04-05T03:28:18.012Z,83.01
2017-04-05T03:28:32.200Z,83.01
2017-04-05T03:28:46.330Z,83.06
2017-04-05T03:29:01.038Z,82.92
2017-04-05T03:29:15.197Z,82.96
2017-04-05T03:29:29.362Z,83.01
2017-04-05T03:29:43.457Z,83.06
2017-04-05T03:29:57.586Z,83.15
2017-04-05T03:30:11.752Z,83.11
2017-04-05T03:30:26.550Z,82.96
2017-04-05T03:30:44.879Z,83.11
2017-04-05T03:30:59.069Z,82.82
2017-04-05T03:31:16.448Z,82.53
2017-04-05T03:31:30.847Z,82.92
2017-04-05T03:31:45.094Z,82.63
2017-04-05T03:31:59.236Z,82.73
2017-04-05T03:32:13.387Z,82.73
2017-04-05T03:32:27.511Z,82.82
2017-04-05T03:32:41.911Z,82.92
2017-04-05T03:32:56.091Z,82.43
2017-04-05T03:33:10.235Z,82.73
2017-04-05T03:33:24.363Z,82.43
2017-04-05T03:33:39.238Z,82.34
2017-04-05T03:33:53.408Z,82.34
2017-04-05T03:34:07.586Z,82.63
2017-04-05T03:34:21.703Z,82.63
2017-04-05T03:34:35.853Z,82.34
2017-04-05T03:34:50.061Z,82.53
2017-04-05T03:35:04.210Z,82.34
2017-04-05T03:35:18.353Z,82.63
2017-04-05T03:35:32.532Z,82.43
2017-04-05T03:35:46.674Z,81.96
2017-04-05T03:36:00.857Z,81.86
2017-04-05T03:36:15.027Z,81.96
2017-04-05T03:36:29.164Z,81.76
2017-04-05T03:36:43.315Z,81.28
2017-04-05T03:36:57.436Z,81.57
2017-04-05T03:37:11.578Z,81.09
2017-04-05T03:37:25.752Z,81.19
2017-04-05T03:37:39.879Z,80.8
2017-04-05T03:37:53.996Z,80.8
2017-04-05T03:38:08.170Z,80.51
2017-04-05T03:38:22.367Z,80.71
2017-04-05T03:38:36.501Z,80.42
2017-04-05T03:38:50.682Z,79.94
2017-04-05T03:39:04.844Z,80.04
2017-04-05T03:39:19.081Z,79.46
2017-04-05T03:39:33.271Z,79.46
2017-04-05T03:39:47.441Z,79.07
2017-04-05T03:40:01.553Z,78.4
2017-04-05T03:40:15.683Z,77.73
2017-04-05T03:40:29.778Z,77.63
2017-04-05T03:40:43.882Z,77.25
2017-04-05T03:40:58.009Z,77.53
2017-04-05T03:41:12.207Z,76.86
2017-04-05T03:41:26.412Z,76.19
2017-04-05T03:41:40.593Z,76
2017-04-05T03:41:54.848Z,75.42
2017-04-05T03:42:09.010Z,75.23
2017-04-05T03:42:23.137Z,75.04
2017-04-05T03:42:37.305Z,75.04
2017-04-05T03:42:51.425Z,74.65
2017-04-05T03:43:05.609Z,74.37
2017-04-05T03:43:19.753Z,74.17
2017-04-05T03:43:33.918Z,73.69
2017-04-05T03:43:48.104Z,72.83
2017-04-05T03:44:02.265Z,73.21
2017-04-05T03:44:16.409Z,72.73
2017-04-05T03:44:30.605Z,72.16
2017-04-05T03:44:44.801Z,72.44
2017-04-05T03:44:58.941Z,72.54
2017-04-05T03:45:13.115Z,72.64
2017-04-05T03:45:27.332Z,72.34
2017-04-05T03:45:41.471Z,71.87
2017-04-05T03:45:55.667Z,71.87
2017-04-05T03:46:09.830Z,71.77
2017-04-05T03:46:24.015Z,71.87
2017-04-05T03:46:38.201Z,71.96
2017-04-05T03:46:52.417Z,71.67
2017-04-05T03:47:06.555Z,71.96
2017-04-05T03:47:20.679Z,71.87
2017-04-05T03:47:34.813Z,71.77
2017-04-05T03:47:48.935Z,71.96
2017-04-05T03:48:03.050Z,71.87
2017-04-05T03:48:17.175Z,71.67
2017-04-05T03:48:31.373Z,71.87
2017-04-05T03:48:45.538Z,71.67
2017-04-05T03:48:59.668Z,71.77
2017-04-05T03:49:13.810Z,71.87
2017-04-05T03:49:28.019Z,71.67
2017-04-05T03:49:42.170Z,71.96
2017-04-05T03:49:56.298Z,71.87
2017-04-05T03:50:10.472Z,71.87
2017-04-05T03:50:24.582Z,71.58
2017-04-05T03:50:38.698Z,71.87
2017-04-05T03:50:52.886Z,72.06
2017-04-05T03:51:07.039Z,71.87
2017-04-05T03:51:21.237Z,71.87
2017-04-05T03:51:35.442Z,72.25
2017-04-05T03:51:49.565Z,72.73
2017-04-05T03:52:03.708Z,72.54
2017-04-05T03:52:17.930Z,72.44
2017-04-05T03:52:32.025Z,72.44
2017-04-05T03:52:46.210Z,72.16
2017-04-05T03:53:00.360Z,72.54
2017-04-05T03:53:14.487Z,73.11
2017-04-05T03:53:28.648Z,73.02
2017-04-05T03:53:42.754Z,72.83
2017-04-05T03:53:56.942Z,73.6
2017-04-05T03:54:11.115Z,73.5
2017-04-05T03:54:25.265Z,73.79
2017-04-05T03:54:39.419Z,73.98
2017-04-05T03:54:53.660Z,73.98
2017-04-05T03:55:07.844Z,73.79
2017-04-05T03:55:22.003Z,73.88
2017-04-05T03:55:36.114Z,73.88
2017-04-05T03:55:50.252Z,73.69
2017-04-05T03:56:04.382Z,73.98
2017-04-05T03:56:18.520Z,73.98
2017-04-05T03:56:32.615Z,73.88
2017-04-05T03:56:46.706Z,73.88
2017-04-05T03:57:00.899Z,73.79
2017-04-05T03:57:15.039Z,73.79
2017-04-05T03:57:29.163Z,73.5
2017-04-05T03:57:43.301Z,73.88
2017-04-05T03:57:57.460Z,74.08
2017-04-05T03:58:11.629Z,73.41
2017-04-05T03:58:25.775Z,73.88
2017-04-05T03:58:39.911Z,73.88
2017-04-05T03:58:54.059Z,73.31
2017-04-05T03:59:08.270Z,73.41
2017-04-05T03:59:22.431Z,73.5
2017-04-05T03:59:36.621Z,73.79
2017-04-05T03:59:50.734Z,73.5
2017-04-05T04:00:04.853Z,73.69
2017-04-05T04:00:18.969Z,73.79
2017-04-05T04:00:33.106Z,73.69
2017-04-05T04:00:47.337Z,73.69
2017-04-05T04:01:01.503Z,73.69
2017-04-05T04:01:15.677Z,73.6
2017-04-05T04:01:29.849Z,73.5
2017-04-05T04:01:43.982Z,73.79
2017-04-05T04:01:58.132Z,73.69
2017-04-05T04:02:12.284Z,73.79
2017-04-05T04:02:26.434Z,73.6
2017-04-05T04:02:40.602Z,73.41
2017-04-05T04:02:54.739Z,73.69
2017-04-05T04:03:08.892Z,73.69
2017-04-05T04:03:23.004Z,73.79
2017-04-05T04:03:37.141Z,73.6
2017-04-05T04:03:51.275Z,73.69
2017-04-05T04:04:05.391Z,73.79
2017-04-05T04:04:19.644Z,73.88
2017-04-05T04:04:33.796Z,73.88
2017-04-05T04:04:47.941Z,74.27
2017-04-05T04:05:02.091Z,74.08
2017-04-05T04:05:16.271Z,74.46
2017-04-05T04:05:30.409Z,73.98
2017-04-05T04:05:44.521Z,73.88
2017-04-05T04:05:58.718Z,73.79
2017-04-05T04:06:12.861Z,74.08
2017-04-05T04:06:27.070Z,74.08
2017-04-05T04:06:41.235Z,73.79
2017-04-05T04:06:55.377Z,73.6
2017-04-05T04:07:09.590Z,74.08
2017-04-05T04:07:23.747Z,73.69
2017-04-05T04:07:37.882Z,73.5
2017-04-05T04:07:52.067Z,74.08
2017-04-05T04:08:06.274Z,73.88
2017-04-05T04:08:20.425Z,73.98
2017-04-05T04:08:34.635Z,73.88
2017-04-05T04:08:48.809Z,74.17
2017-04-05T04:09:02.926Z,73.98
2017-04-05T04:09:17.027Z,73.79
2017-04-05T04:09:31.126Z,74.08
2017-04-05T04:09:45.314Z,74.08
2017-04-05T04:09:59.483Z,74.08
2017-04-05T04:10:13.645Z,73.88
2017-04-05T04:10:27.791Z,73.98
2017-04-05T04:10:41.958Z,73.88
2017-04-05T04:10:56.096Z,73.88
2017-04-05T04:11:10.237Z,73.5
2017-04-05T04:11:24.419Z,73.5
2017-04-05T04:11:38.552Z,73.6
2017-04-05T04:11:52.701Z,73.6
2017-04-05T04:12:06.958Z,73.31
2017-04-05T04:12:21.121Z,73.41
2017-04-05T04:12:35.247Z,73.6
2017-04-05T04:12:49.410Z,73.69
2017-04-05T04:13:03.558Z,73.41
2017-04-05T04:13:17.720Z,73.69
2017-04-05T04:13:31.936Z,72.73
2017-04-05T04:13:46.141Z,73.02
2017-04-05T04:14:00.337Z,72.92
2017-04-05T04:14:14.511Z,73.21
2017-04-05T04:14:28.715Z,73.11
2017-04-05T04:14:42.963Z,72.92
2017-04-05T04:14:57.061Z,73.11
2017-04-05T04:15:11.219Z,72.64
2017-04-05T04:15:25.362Z,72.64
2017-04-05T04:15:39.519Z,73.21
2017-04-05T04:15:53.600Z,72.64
2017-04-05T04:16:07.747Z,72.64
2017-04-05T04:16:21.943Z,73.11
2017-04-05T04:16:36.098Z,72.54
2017-04-05T04:16:50.298Z,72.54
2017-04-05T04:17:04.444Z,72.64
2017-04-05T04:17:18.621Z,72.83
2017-04-05T04:17:32.708Z,72.83
2017-04-05T04:17:46.811Z,72.54
2017-04-05T04:18:00.945Z,72.44
2017-04-05T04:18:15.148Z,72.44
2017-04-05T04:18:29.271Z,72.64
2017-04-05T04:18:43.434Z,72.64
2017-04-05T04:18:57.579Z,72.83
2017-04-05T04:19:11.675Z,72.83
2017-04-05T04:19:25.779Z,72.44
2017-04-05T04:19:39.969Z,72.64
2017-04-05T04:19:54.133Z,72.64
2017-04-05T04:20:08.251Z,72.25
2017-04-05T04:20:22.388Z,72.54
2017-04-05T04:20:36.585Z,72.34
2017-04-05T04:20:50.701Z,72.67
2017-04-05T04:21:04.839Z,72.16
2017-04-05T04:21:18.973Z,72.16
2017-04-05T04:21:33.086Z,72.06
2017-04-05T04:21:47.243Z,72.16
2017-04-05T04:22:01.358Z,72.25
2017-04-05T04:22:15.516Z,72.25
2017-04-05T04:22:29.644Z,72.34
2017-04-05T04:22:43.832Z,72.34
2017-04-05T04:22:57.973Z,72.06
2017-04-05T04:23:12.130Z,72.34
2017-04-05T04:23:26.277Z,72.44
2017-04-05T04:23:40.404Z,72.25
2017-04-05T04:23:54.591Z,72.54
2017-04-05T04:24:08.721Z,72.54
2017-04-05T04:24:22.859Z,72.34
2017-04-05T04:24:36.949Z,72.44
2017-04-05T04:24:51.118Z,72.34
2017-04-05T04:25:05.272Z,72.73
2017-04-05T04:25:19.391Z,72.64
2017-04-05T04:25:33.589Z,72.25
2017-04-05T04:25:47.701Z,72.16
2017-04-05T04:26:01.816Z,72.44
2017-04-05T04:26:15.980Z,72.44
2017-04-05T04:26:30.099Z,72.64
2017-04-05T04:26:44.270Z,72.92
2017-04-05T04:26:58.448Z,72.64
2017-04-05T04:27:12.758Z,72.83
2017-04-05T04:27:26.937Z,73.88
2017-04-05T04:27:41.070Z,74.08
2017-04-05T04:27:55.205Z,73.98
2017-04-05T04:28:09.346Z,74.75
2017-04-05T04:28:23.508Z,74.55
2017-04-05T04:28:37.559Z,74.75
2017-04-05T04:28:51.742Z,74.37
2017-04-05T04:29:05.886Z,73.98
2017-04-05T04:29:20.022Z,74.37
2017-04-05T04:29:34.149Z,74.27
2017-04-05T04:29:48.321Z,74.75
2017-04-05T04:30:02.530Z,74.46
2017-04-05T04:30:16.618Z,74.37
2017-04-05T04:30:30.745Z,74.46
2017-04-05T04:30:44.965Z,74.65
2017-04-05T04:30:59.135Z,74.75
2017-04-05T04:31:13.241Z,74.85
2017-04-05T04:31:27.378Z,74.55
2017-04-05T04:31:41.510Z,74.75
2017-04-05T04:31:55.626Z,74.55
2017-04-05T04:32:09.754Z,74.75
2017-04-05T04:32:23.975Z,74.55
2017-04-05T04:32:38.121Z,74.55
2017-04-05T04:32:52.299Z,74.75
2017-04-05T04:33:06.464Z,74.75
2017-04-05T04:33:20.558Z,74.75
2017-04-05T04:33:34.743Z,75.32
2017-04-05T04:33:48.824Z,75.13
2017-04-05T04:34:02.963Z,75.04
2017-04-05T04:34:17.095Z,74.75
2017-04-05T04:34:31.177Z,75.13
2017-04-05T04:34:45.328Z,74.55
2017-04-05T04:34:59.470Z,74.85
2017-04-05T04:35:13.609Z,74.55
2017-04-05T04:35:27.820Z,74.65
2017-04-05T04:35:41.963Z,74.65
2017-04-05T04:35:56.102Z,74.65
2017-04-05T04:36:10.321Z,75.04
2017-04-05T04:36:24.467Z,75.23
2017-04-05T04:36:38.622Z,74.94
2017-04-05T04:36:52.722Z,74.85
2017-04-05T04:37:06.837Z,74.94
2017-04-05T04:37:20.977Z,75.04
2017-04-05T04:37:35.095Z,74.85
2017-04-05T04:37:49.291Z,75.04
2017-04-05T04:38:03.475Z,74.94
2017-04-05T04:38:17.615Z,74.94
2017-04-05T04:38:31.796Z,74.94
2017-04-05T04:38:45.940Z,74.75
2017-04-05T04:39:00.041Z,74.65
2017-04-05T04:39:14.116Z,74.94
2017-04-05T04:39:28.269Z,74.94
2017-04-05T04:39:42.482Z,75.04
2017-04-05T04:39:56.741Z,74.94
2017-04-05T04:40:10.883Z,75.52
2017-04-05T04:40:24.998Z,74.94
2017-04-05T04:40:39.144Z,74.65
2017-04-05T04:40:53.301Z,74.65
2017-04-05T04:41:07.464Z,74.75
2017-04-05T04:41:21.601Z,74.46
2017-04-05T04:41:35.755Z,74.08
2017-04-05T04:41:49.917Z,73.6
2017-04-05T04:42:04.065Z,73.88
2017-04-05T04:42:18.275Z,73.21
2017-04-05T04:42:32.475Z,72.92
2017-04-05T04:42:46.668Z,73.02
2017-04-05T04:43:00.782Z,73.31
2017-04-05T04:43:14.914Z,73.11
2017-04-05T04:43:29.077Z,73.21
2017-04-05T04:43:43.190Z,73.21
2017-04-05T04:43:57.356Z,72.92
2017-04-05T04:44:11.530Z,73.02
2017-04-05T04:44:25.664Z,73.21
2017-04-05T04:44:39.809Z,72.64
2017-04-05T04:44:54.007Z,72.44
2017-04-05T04:45:08.165Z,72.69
2017-04-05T04:45:22.263Z,72.73
2017-04-05T04:45:36.459Z,72.41
2017-04-05T04:45:50.650Z,72.16
2017-04-05T04:46:04.806Z,72.44
2017-04-05T04:46:18.985Z,72.25
2017-04-05T04:46:33.186Z,72.44
2017-04-05T04:46:47.293Z,72.16
2017-04-05T04:47:01.611Z,72.64
2017-04-05T04:47:15.741Z,72.06
2017-04-05T04:47:29.913Z,72.44
2017-04-05T04:47:44.063Z,72.34
2017-04-05T04:47:58.232Z,72.25
2017-04-05T04:48:12.367Z,72.25
2017-04-05T04:48:26.506Z,72.54
2017-04-05T04:48:40.715Z,72.34
2017-04-05T04:48:54.876Z,72.22
2017-04-05T04:49:09.072Z,72.41
2017-04-05T04:49:23.225Z,72.34
2017-04-05T04:49:37.325Z,72.34
2017-04-05T04:49:51.454Z,72.41
2017-04-05T04:50:05.614Z,72.31
2017-04-05T04:50:19.751Z,72.44
2017-04-05T04:50:33.864Z,72.25
2017-04-05T04:50:47.988Z,72.22
2017-04-05T04:51:02.140Z,72.41
2017-04-05T04:51:16.276Z,72.12
2017-04-05T04:51:30.425Z,72.25
2017-04-05T04:51:44.558Z,72.22
2017-04-05T04:51:58.691Z,72.22
2017-04-05T04:52:12.808Z,72.5
2017-04-05T04:52:26.914Z,72.44
2017-04-05T04:52:41.095Z,72.22
2017-04-05T04:52:55.230Z,72.5
2017-04-05T04:53:09.367Z,72.5
2017-04-05T04:53:23.484Z,72.41
2017-04-05T04:53:37.616Z,72.41
2017-04-05T04:53:51.683Z,72.22
2017-04-05T04:54:05.763Z,72.6
2017-04-05T04:54:19.905Z,72.41
2017-04-05T04:54:34.108Z,72.31
2017-04-05T04:54:48.262Z,72.6
2017-04-05T04:55:02.429Z,72.22
2017-04-05T04:55:16.651Z,72.12
2017-04-05T04:55:30.796Z,72.02
2017-04-05T04:55:44.944Z,71.87
2017-04-05T04:55:59.128Z,71.73
2017-04-05T04:56:13.290Z,71.77
2017-04-05T04:56:27.462Z,71.87
2017-04-05T04:56:41.650Z,71.77
2017-04-05T04:56:55.871Z,71.77
2017-04-05T04:57:09.998Z,71.87
2017-04-05T04:57:24.368Z,71.77
2017-04-05T04:57:38.481Z,71.96
2017-04-05T04:57:52.635Z,71.96
2017-04-05T04:58:06.795Z,72.25
2017-04-05T04:58:20.914Z,72.22
2017-04-05T04:58:35.107Z,72.73
2017-04-05T04:58:49.265Z,72.64
2017-04-05T04:59:03.444Z,72.44
2017-04-05T04:59:17.576Z,72.54
2017-04-05T04:59:31.735Z,72.25
2017-04-05T04:59:45.859Z,72.73
2017-04-05T04:59:59.998Z,73.21
2017-04-05T05:00:14.176Z,73.21
2017-04-05T05:00:28.379Z,72.54
2017-04-05T05:00:42.522Z,72.83
2017-04-05T05:00:56.912Z,73.18
2017-04-05T05:01:11.049Z,73.5
2017-04-05T05:01:25.152Z,73.37
2017-04-05T05:01:39.253Z,73.56
2017-04-05T05:01:53.438Z,73.56
2017-04-05T05:02:07.590Z,73.66
2017-04-05T05:02:21.728Z,73.56
2017-04-05T05:02:35.890Z,73.56
2017-04-05T05:02:49.995Z,73.56
2017-04-05T05:03:04.126Z,73.75
2017-04-05T05:03:18.268Z,74.17
2017-04-05T05:03:32.366Z,74.04
2017-04-05T05:03:46.503Z,74.17
2017-04-05T05:04:00.641Z,73.85
2017-04-05T05:04:14.754Z,74.04
2017-04-05T05:04:28.840Z,74.04
2017-04-05T05:04:42.983Z,73.66
2017-04-05T05:04:57.093Z,74.17
2017-04-05T05:05:11.200Z,73.85
2017-04-05T05:05:25.378Z,73.75
2017-04-05T05:05:39.632Z,73.56
2017-04-05T05:05:53.826Z,73.37
2017-04-05T05:06:07.970Z,73.94
2017-04-05T05:06:22.120Z,73.66
2017-04-05T05:06:36.368Z,73.27
2017-04-05T05:06:50.467Z,73.79
2017-04-05T05:07:04.588Z,73.46
2017-04-05T05:07:18.748Z,73.56
2017-04-05T05:07:32.870Z,73.46
2017-04-05T05:07:47.030Z,73.6
2017-04-05T05:08:01.222Z,73.98
2017-04-05T05:08:15.353Z,74.08
2017-04-05T05:08:29.496Z,73.88
2017-04-05T05:08:43.614Z,74.37
2017-04-05T05:08:57.841Z,74.43
2017-04-05T05:09:11.929Z,74.62
2017-04-05T05:09:26.066Z,75.1
2017-04-05T05:09:40.242Z,75
2017-04-05T05:09:54.440Z,75.13
2017-04-05T05:10:08.631Z,74.71
2017-04-05T05:10:22.791Z,75.1
2017-04-05T05:10:37.006Z,75.1
2017-04-05T05:10:51.170Z,74.71
2017-04-05T05:11:05.366Z,74.81
2017-04-05T05:11:19.537Z,74.71
2017-04-05T05:11:33.728Z,75
2017-04-05T05:11:47.957Z,74.9
2017-04-05T05:12:02.109Z,74.62
2017-04-05T05:12:16.259Z,74.52
2017-04-05T05:12:30.471Z,75.2
2017-04-05T05:12:44.744Z,75
2017-04-05T05:12:58.862Z,74.81
2017-04-05T05:13:13.009Z,74.71
2017-04-05T05:13:27.216Z,74.81
2017-04-05T05:13:41.381Z,75.1
2017-04-05T05:13:55.549Z,75
2017-04-05T05:14:09.733Z,74.9
2017-04-05T05:14:23.851Z,74.71
2017-04-05T05:14:38.078Z,75.1
2017-04-05T05:14:52.213Z,74.62
2017-04-05T05:15:06.357Z,74.62
2017-04-05T05:15:20.491Z,74.52
2017-04-05T05:15:34.673Z,74.33
2017-04-05T05:15:48.818Z,74.62
2017-04-05T05:16:02.995Z,74.62
2017-04-05T05:16:17.219Z,74.43
2017-04-05T05:16:31.386Z,74.52
2017-04-05T05:16:45.542Z,74.43
2017-04-05T05:16:59.723Z,74.13
2017-04-05T05:17:13.867Z,74.04
2017-04-05T05:17:28.046Z,73.94
2017-04-05T05:17:42.395Z,73.94
2017-04-05T05:17:56.515Z,74.04
2017-04-05T05:18:10.684Z,73.85
2017-04-05T05:18:24.828Z,73.66
2017-04-05T05:18:38.948Z,73.85
2017-04-05T05:18:53.092Z,73.85
2017-04-05T05:19:07.275Z,74.23
2017-04-05T05:19:21.470Z,74.13
2017-04-05T05:19:35.618Z,73.75
2017-04-05T05:19:49.741Z,73.56
2017-04-05T05:20:03.910Z,73.66
2017-04-05T05:20:18.023Z,73.75
2017-04-05T05:20:32.226Z,73.75
2017-04-05T05:20:46.404Z,74.13
2017-04-05T05:21:00.515Z,74.04
2017-04-05T05:21:14.604Z,74.13
2017-04-05T05:21:28.753Z,73.75
2017-04-05T05:21:42.913Z,73.56
2017-04-05T05:21:57.094Z,73.56
2017-04-05T05:22:11.268Z,73.56
2017-04-05T05:22:25.391Z,73.56
2017-04-05T05:22:39.570Z,73.52
2017-04-05T05:22:53.762Z,73.46
2017-04-05T05:23:07.921Z,73.85
2017-04-05T05:23:22.120Z,73.75
2017-04-05T05:23:36.243Z,73.56
2017-04-05T05:23:50.358Z,73.46
2017-04-05T05:24:04.481Z,73.46
2017-04-05T05:24:18.576Z,73.43
2017-04-05T05:24:32.750Z,73.37
2017-04-05T05:24:46.898Z,73.94
2017-04-05T05:25:01.008Z,73.66
2017-04-05T05:25:15.134Z,74.13
2017-04-05T05:25:29.295Z,74.04
2017-04-05T05:25:43.484Z,73.75
2017-04-05T05:25:57.612Z,74.04
2017-04-05T05:26:11.731Z,74.13
2017-04-05T05:26:25.909Z,74.13
2017-04-05T05:26:40.077Z,74.01
2017-04-05T05:26:54.198Z,74.04
2017-04-05T05:27:08.373Z,73.81
2017-04-05T05:27:22.582Z,74.01
2017-04-05T05:27:36.737Z,73.62
2017-04-05T05:27:51.002Z,73.52
2017-04-05T05:28:05.176Z,73.43
2017-04-05T05:28:19.367Z,73.43
2017-04-05T05:28:33.616Z,73.91
2017-04-05T05:28:47.781Z,73.43
2017-04-05T05:29:01.930Z,73.33
2017-04-05T05:29:16.117Z,73.62
2017-04-05T05:29:30.266Z,73.52
2017-04-05T05:29:44.460Z,73.43
2017-04-05T05:29:58.610Z,73.33
2017-04-05T05:30:12.771Z,73.56
2017-04-05T05:30:26.968Z,72.69
2017-04-05T05:30:41.102Z,72.99
2017-04-05T05:30:55.271Z,72.99
2017-04-05T05:31:09.423Z,72.89
2017-04-05T05:31:23.627Z,73.37
2017-04-05T05:31:37.788Z,73.37
2017-04-05T05:31:51.974Z,73.46
2017-04-05T05:32:06.106Z,73.27
2017-04-05T05:32:20.304Z,73.37
2017-04-05T05:32:34.479Z,73.75
2017-04-05T05:32:48.724Z,73.85
2017-04-05T05:33:02.871Z,73.75
2017-04-05T05:33:17.050Z,73.94
2017-04-05T05:33:31.178Z,73.46
2017-04-05T05:33:45.301Z,73.85
2017-04-05T05:33:59.462Z,73.85
2017-04-05T05:34:13.588Z,73.56
2017-04-05T05:34:27.735Z,73.33
2017-04-05T05:34:41.870Z,73.37
2017-04-05T05:34:56.058Z,72.79
2017-04-05T05:35:10.246Z,73.56
2017-04-05T05:35:24.409Z,73.66
2017-04-05T05:35:38.597Z,73.37
2017-04-05T05:35:52.752Z,72.79
2017-04-05T05:36:06.944Z,73.18
2017-04-05T05:36:21.107Z,72.99
2017-04-05T05:36:35.232Z,73.14
2017-04-05T05:36:49.385Z,73.18
2017-04-05T05:37:03.566Z,73.08
2017-04-05T05:37:17.698Z,73.08
2017-04-05T05:37:31.914Z,72.79
2017-04-05T05:37:46.093Z,72.69
2017-04-05T05:38:00.235Z,72.6
2017-04-05T05:38:14.424Z,72.89
2017-04-05T05:38:28.626Z,73.08
2017-04-05T05:38:42.799Z,72.6
2017-04-05T05:38:57.016Z,72.6